Flight Track Log - Related Links

Times and Time Zones

All times are in EDT time to prevent confusion due to time zone crossing. See the SWA796 flight status page for this flight to view local times or setup timezone preferences in your user account.


Time Position Orientation Groundspeed Altitude Reporting Facility
EDT Latitude Longitude Course Direction KTS MPH feet Rate Location/Type
Sat 08:12:42 AM 35.4039 -97.5919 61° Northeast 138 159 2,300  Level Fort Worth Center
Sat 08:13:19 AM 35.4292 -97.5792 22° Northeast 171 197 3,800 2,660 Climbing Fort Worth Center
Sat 08:14:19 AM 35.4644 -97.5131 57° Northeast 255 293 6,600 2,985 Climbing Fort Worth Center
Sat 08:16:40 AM 35.5572 -97.3058 61° Northeast 323 372 13,800 3,104 Climbing Kansas City Center
Sat 08:17:40 AM 35.6036 -97.1969 62° Northeast 350 403 17,000 3,074 Climbing Kansas City Center
Sat 08:18:00 AM 35.6373 -97.0281 61° Northeast  Level FlightAware Approximate
Sat 08:18:41 AM 35.6508 -97.0856 62° Northeast 362 417 20,000  Level Kansas City Center
Sat 08:19:42 AM 35.7011 -96.9686 62° Northeast 379 436 22,200 2,164 Climbing Kansas City Center
Sat 08:20:43 AM 35.7547 -96.8428 62° Northeast 406 467 24,400 2,016 Climbing Kansas City Center
Sat 08:21:44 AM 35.8100 -96.7131 62° Northeast 423 487 26,300 1,884 Climbing Kansas City Center
Sat 08:22:44 AM 35.8681 -96.5769 62° Northeast 442 509 28,200 1,681 Climbing Kansas City Center
Sat 08:24:00 AM 35.9693 -96.4653 49° Northeast  Level FlightAware Approximate
Sat 08:24:46 AM 36.0283 -96.3222 49° Northeast 453 521 31,400  Level Kansas City Center
Sat 08:25:47 AM 36.1069 -96.1958 52° Northeast 460 529 33,300 1,721 Climbing Kansas City Center
Sat 08:26:48 AM 36.1842 -96.0706 53° Northeast 458 527 34,900 1,525 Climbing Kansas City Center
Sat 08:27:49 AM 36.2608 -95.9456 53° Northeast 454 522 36,400 1,279 Climbing Kansas City Center
Sat 08:28:50 AM 36.3378 -95.8197 53° Northeast 455 524 37,500 1,190 Climbing Kansas City Center
Sat 08:29:50 AM 36.4208 -95.6844 53° Northeast 454 522 38,800 744 Climbing Kansas City Center
Sat 08:30:51 AM 36.4967 -95.5614 53° Northeast 452 520 39,000 98 Climbing Kansas City Center
Sat 08:31:52 AM 36.5731 -95.4361 53° Northeast 454 522 39,000  Level Kansas City Center
Sat 08:32:53 AM 36.6486 -95.3108 53° Northeast 454 522 39,000  Level Kansas City Center
Sat 08:33:54 AM 36.7242 -95.1850 53° Northeast 452 520 39,000  Level Kansas City Center
Sat 08:34:55 AM 36.7997 -95.0589 53° Northeast 452 520 39,000  Level Kansas City Center
Sat 08:35:56 AM 36.8756 -94.9331 53° Northeast 451 519 39,000  Level Kansas City Center
Sat 08:36:57 AM 36.9511 -94.8078 53° Northeast 450 518 39,000  Level Kansas City Center
Sat 08:37:58 AM 37.0256 -94.6806 54° Northeast 451 519 39,000  Level Kansas City Center
Sat 08:38:58 AM 37.1003 -94.5556 53° Northeast 449 517 39,000  Level Kansas City Center
Sat 08:39:59 AM 37.1747 -94.4278 54° Northeast 451 519 39,000  Level Kansas City Center
Sat 08:41:00 AM 37.2503 -94.3022 53° Northeast 450 518 39,000  Level Kansas City Center
Sat 08:42:01 AM 37.3250 -94.1753 53° Northeast 451 519 39,000  Level Kansas City Center
Sat 08:43:02 AM 37.4017 -94.0375 55° Northeast 447 514 39,000  Level Kansas City Center
Sat 08:44:03 AM 37.4758 -93.9103 54° Northeast 449 517 39,000  Level Kansas City Center
Sat 08:45:04 AM 37.5497 -93.7817 54° Northeast 449 517 39,000  Level Kansas City Center
Sat 08:46:05 AM 37.6236 -93.6531 54° Northeast 451 519 39,000  Level Kansas City Center
Sat 08:47:07 AM 37.6992 -93.5244 53° Northeast 453 521 39,000  Level Kansas City Center
Sat 08:48:08 AM 37.7731 -93.3942 54° Northeast 453 521 39,000  Level Kansas City Center
Sat 08:49:09 AM 37.8631 -93.2375 54° Northeast 456 525 39,000  Level Kansas City Center
Sat 08:50:10 AM 37.9367 -93.1064 55° Northeast 454 522 39,000  Level Kansas City Center
Sat 08:51:11 AM 38.0114 -92.9742 54° Northeast 457 526 39,000 -344 Level Kansas City Center
Sat 08:52:12 AM 38.0853 -92.8425 54° Northeast 455 524 38,300 -787 Descending Kansas City Center
Sat 08:53:13 AM 38.1500 -92.7275 54° Northeast 446 513 37,400 -934 Descending Kansas City Center
Sat 08:54:14 AM 38.2267 -92.5881 55° Northeast 434 499 36,400 -1,033 Descending Kansas City Center
Sat 08:55:15 AM 38.2978 -92.4622 54° Northeast 432 497 35,300 -1,623 Descending Kansas City Center
Sat 08:56:16 AM 38.3664 -92.3369 55° Northeast 427 491 33,100 -2,262 Descending Kansas City Center
Sat 08:57:17 AM 38.4331 -92.2175 55° Northeast 414 476 30,700 -2,311 Descending Kansas City Center
Sat 08:58:18 AM 38.4925 -92.1044 56° Northeast 390 449 28,400 -2,146 Descending Kansas City Center
Sat 08:59:20 AM 38.5511 -91.9992 55° Northeast 369 425 26,300 -1,951 Descending Kansas City Center
Sat 09:00:21 AM 38.6058 -91.9006 55° Northeast 348 400 24,400 -1,869 Descending Kansas City Center
Sat 09:01:22 AM 38.6583 -91.8042 55° Northeast 334 384 22,500 -1,869 Descending Kansas City Center
Sat 09:02:23 AM 38.6922 -91.7019 67° East 327 376 20,600 -1,918 Descending Kansas City Center
Sat 09:03:24 AM 38.6928 -91.5931 90° East 313 360 18,600 -1,918 Descending Kansas City Center
Sat 09:04:25 AM 38.6939 -91.4869 89° East 304 350 16,700 -1,869 Descending Kansas City Center
Sat 09:05:26 AM 38.6933 -91.3769 90° East 303 349 14,800 -1,869 Descending Kansas City Center
Sat 09:06:27 AM 38.6939 -91.2725 90° East 304 350 12,900 -1,820 Descending Kansas City Center
Sat 09:07:28 AM 38.6936 -91.1692 90° East 297 342 11,100 -1,377 Descending Kansas City Center
Sat 09:08:29 AM 38.7092 -91.0733 78° East 285 328 10,100 -1,073 Descending Kansas City Center
Sat 09:09:31 AM 38.7450 -90.9922 60° Northeast 265 305 8,900 -1,171 Descending Kansas City Center
Sat 09:10:32 AM 38.8261 -90.9375 28° Northeast 288 331 7,700 -934 Descending Kansas City Center
Sat 09:11:33 AM 38.8972 -90.8983 23° Northeast 282 325 7,000 -639 Descending Kansas City Center
Sat 09:12:34 AM 38.9553 -90.8697 21° North 236 272 6,400 -934 Descending Kansas City Center
Sat 09:13:35 AM 38.9617 -90.8067 83° East 194 223 5,100 -683 Descending Kansas City Center
Sat 09:14:37 AM 38.9422 -90.7503 114° Southeast 176 203 5,000 -49 Descending Kansas City Center
Sat 09:15:38 AM 38.9153 -90.7003 125° Southeast 171 197 5,000  Level Kansas City Center
Sat 09:16:39 AM 38.8892 -90.6472 122° Southeast 174 200 5,000 -49 Level Kansas City Center
Sat 09:17:40 AM 38.8642 -90.5950 122° Southeast 173 199 4,900 -537 Descending Kansas City Center
Sat 09:18:42 AM 38.8378 -90.5417 122° Southeast 175 201 3,900 -976 Descending Kansas City Center
Sat 09:19:43 AM 38.8128 -90.4906 122° Southeast 173 199 2,900 -934 Descending Kansas City Center
Sat 09:20:44 AM 38.7903 -90.4453 123° Southeast 163 188 2,000 -885 Descending Kansas City Center
Sat 09:21:45 AM 38.7669 -90.3967 122° Southeast 144 166 1,100 -732 Descending Kansas City Center
Sat 09:22:47 AM 38.7508 -90.3633 122° Southeast 139 160 500 -581 Descending Kansas City Center

Login

Don't have an account? Register now (free) for customized features, flight alerts, and more!